sensor_id;sensor_type;location;lat;lon;timestamp;P1;durP1;ratioP1;P2;durP2;ratioP2
59089;SDS011;44878;50.102;18.982;2023-05-09T00:01:38;19.13;;;17.13;;
59089;SDS011;44878;50.102;18.982;2023-05-09T00:04:06;20.30;;;17.95;;
59089;SDS011;44878;50.102;18.982;2023-05-09T00:06:35;19.30;;;17.30;;
59089;SDS011;44878;50.102;18.982;2023-05-09T00:09:02;20.30;;;18.20;;
59089;SDS011;44878;50.102;18.982;2023-05-09T00:11:29;21.05;;;17.73;;
59089;SDS011;44878;50.102;18.982;2023-05-09T00:13:55;20.60;;;18.40;;
59089;SDS011;44878;50.102;18.982;2023-05-09T00:16:21;21.30;;;19.00;;
59089;SDS011;44878;50.102;18.982;2023-05-09T00:18:48;20.58;;;18.45;;
59089;SDS011;44878;50.102;18.982;2023-05-09T00:21:15;19.63;;;17.53;;
59089;SDS011;44878;50.102;18.982;2023-05-09T00:23:41;23.53;;;18.70;;
59089;SDS011;44878;50.102;18.982;2023-05-09T00:26:06;21.33;;;19.17;;
59089;SDS011;44878;50.102;18.982;2023-05-09T00:28:32;22.17;;;19.80;;
59089;SDS011;44878;50.102;18.982;2023-05-09T00:30:58;20.03;;;17.80;;
59089;SDS011;44878;50.102;18.982;2023-05-09T00:33:24;20.83;;;18.63;;
59089;SDS011;44878;50.102;18.982;2023-05-09T00:35:54;20.67;;;18.43;;
59089;SDS011;44878;50.102;18.982;2023-05-09T00:38:21;22.13;;;19.13;;
59089;SDS011;44878;50.102;18.982;2023-05-09T00:40:47;22.20;;;19.97;;
59089;SDS011;44878;50.102;18.982;2023-05-09T00:43:13;21.23;;;19.13;;
59089;SDS011;44878;50.102;18.982;2023-05-09T00:45:38;23.43;;;21.17;;
59089;SDS011;44878;50.102;18.982;2023-05-09T00:48:04;22.00;;;19.77;;
59089;SDS011;44878;50.102;18.982;2023-05-09T00:50:30;21.23;;;19.07;;
59089;SDS011;44878;50.102;18.982;2023-05-09T00:52:57;21.30;;;19.13;;
59089;SDS011;44878;50.102;18.982;2023-05-09T00:55:25;22.37;;;19.83;;
59089;SDS011;44878;50.102;18.982;2023-05-09T00:57:52;23.23;;;20.90;;
59089;SDS011;44878;50.102;18.982;2023-05-09T01:00:20;22.67;;;20.47;;
59089;SDS011;44878;50.102;18.982;2023-05-09T01:02:47;23.37;;;21.07;;
59089;SDS011;44878;50.102;18.982;2023-05-09T01:05:17;22.10;;;19.60;;
59089;SDS011;44878;50.102;18.982;2023-05-09T01:08:06;23.13;;;20.63;;
59089;SDS011;44878;50.102;18.982;2023-05-09T01:10:39;22.93;;;19.97;;
59089;SDS011;44878;50.102;18.982;2023-05-09T01:13:29;22.67;;;20.47;;
59089;SDS011;44878;50.102;18.982;2023-05-09T01:21:16;23.23;;;20.87;;
59089;SDS011;44878;50.102;18.982;2023-05-09T01:31:18;24.70;;;22.23;;
59089;SDS011;44878;50.102;18.982;2023-05-09T01:33:45;24.80;;;22.47;;
59089;SDS011;44878;50.102;18.982;2023-05-09T01:36:12;25.57;;;22.97;;
59089;SDS011;44878;50.102;18.982;2023-05-09T01:38:39;23.17;;;20.87;;
59089;SDS011;44878;50.102;18.982;2023-05-09T01:41:06;23.67;;;21.47;;
59089;SDS011;44878;50.102;18.982;2023-05-09T01:43:37;24.58;;;22.15;;
59089;SDS011;44878;50.102;18.982;2023-05-09T01:46:04;25.00;;;22.40;;
59089;SDS011;44878;50.102;18.982;2023-05-09T01:48:30;24.93;;;22.60;;
59089;SDS011;44878;50.102;18.982;2023-05-09T01:50:56;26.37;;;23.73;;
59089;SDS011;44878;50.102;18.982;2023-05-09T01:53:23;25.70;;;23.27;;
59089;SDS011;44878;50.102;18.982;2023-05-09T01:55:49;24.00;;;21.63;;
59089;SDS011;44878;50.102;18.982;2023-05-09T01:58:19;25.93;;;23.23;;
59089;SDS011;44878;50.102;18.982;2023-05-09T02:00:46;25.30;;;22.80;;
59089;SDS011;44878;50.102;18.982;2023-05-09T02:03:12;25.27;;;22.73;;
59089;SDS011;44878;50.102;18.982;2023-05-09T02:05:39;25.30;;;22.90;;
59089;SDS011;44878;50.102;18.982;2023-05-09T02:08:06;25.90;;;23.35;;
59089;SDS011;44878;50.102;18.982;2023-05-09T02:10:32;25.63;;;22.97;;
59089;SDS011;44878;50.102;18.982;2023-05-09T02:13:00;26.35;;;23.60;;
59089;SDS011;44878;50.102;18.982;2023-05-09T02:15:25;26.33;;;23.57;;
59089;SDS011;44878;50.102;18.982;2023-05-09T02:17:52;26.03;;;23.63;;
59089;SDS011;44878;50.102;18.982;2023-05-09T02:20:17;25.57;;;23.07;;
59089;SDS011;44878;50.102;18.982;2023-05-09T02:22:43;25.90;;;23.43;;
59089;SDS011;44878;50.102;18.982;2023-05-09T02:25:10;26.00;;;23.60;;
59089;SDS011;44878;50.102;18.982;2023-05-09T02:27:37;26.40;;;23.77;;
59089;SDS011;44878;50.102;18.982;2023-05-09T02:30:03;26.00;;;23.30;;
59089;SDS011;44878;50.102;18.982;2023-05-09T02:32:32;25.60;;;23.03;;
59089;SDS011;44878;50.102;18.982;2023-05-09T02:34:58;26.27;;;23.70;;
59089;SDS011;44878;50.102;18.982;2023-05-09T02:37:26;26.88;;;24.10;;
59089;SDS011;44878;50.102;18.982;2023-05-09T02:39:51;26.53;;;24.07;;
59089;SDS011;44878;50.102;18.982;2023-05-09T02:42:20;26.40;;;23.83;;
59089;SDS011;44878;50.102;18.982;2023-05-09T02:44:50;26.70;;;24.23;;
59089;SDS011;44878;50.102;18.982;2023-05-09T02:47:16;27.80;;;25.10;;
59089;SDS011;44878;50.102;18.982;2023-05-09T02:49:42;27.50;;;24.80;;
59089;SDS011;44878;50.102;18.982;2023-05-09T02:52:07;29.47;;;26.40;;
59089;SDS011;44878;50.102;18.982;2023-05-09T02:54:33;28.80;;;26.07;;
59089;SDS011;44878;50.102;18.982;2023-05-09T02:56:59;27.13;;;24.53;;
59089;SDS011;44878;50.102;18.982;2023-05-09T02:59:25;28.77;;;26.03;;
59089;SDS011;44878;50.102;18.982;2023-05-09T03:01:52;27.90;;;25.03;;
59089;SDS011;44878;50.102;18.982;2023-05-09T03:04:17;28.57;;;25.77;;
59089;SDS011;44878;50.102;18.982;2023-05-09T03:06:44;30.13;;;27.13;;
59089;SDS011;44878;50.102;18.982;2023-05-09T03:09:10;28.30;;;25.80;;
59089;SDS011;44878;50.102;18.982;2023-05-09T03:11:39;30.10;;;27.10;;
59089;SDS011;44878;50.102;18.982;2023-05-09T03:14:05;29.03;;;26.23;;
59089;SDS011;44878;50.102;18.982;2023-05-09T03:16:33;30.10;;;27.30;;
59089;SDS011;44878;50.102;18.982;2023-05-09T03:18:59;30.03;;;27.23;;
59089;SDS011;44878;50.102;18.982;2023-05-09T03:21:25;31.23;;;28.17;;
59089;SDS011;44878;50.102;18.982;2023-05-09T03:23:51;29.87;;;27.03;;
59089;SDS011;44878;50.102;18.982;2023-05-09T03:26:17;29.23;;;26.27;;
59089;SDS011;44878;50.102;18.982;2023-05-09T03:28:43;30.13;;;27.33;;
59089;SDS011;44878;50.102;18.982;2023-05-09T03:31:09;30.03;;;27.07;;
59089;SDS011;44878;50.102;18.982;2023-05-09T03:33:37;30.80;;;27.90;;
59089;SDS011;44878;50.102;18.982;2023-05-09T03:36:03;29.33;;;26.53;;
59089;SDS011;44878;50.102;18.982;2023-05-09T03:38:29;28.87;;;26.07;;
59089;SDS011;44878;50.102;18.982;2023-05-09T03:40:55;29.63;;;26.63;;
59089;SDS011;44878;50.102;18.982;2023-05-09T03:43:21;26.53;;;23.93;;
59089;SDS011;44878;50.102;18.982;2023-05-09T03:45:47;26.93;;;24.37;;
59089;SDS011;44878;50.102;18.982;2023-05-09T03:48:13;27.23;;;24.43;;
59089;SDS011;44878;50.102;18.982;2023-05-09T03:50:39;26.13;;;23.43;;
59089;SDS011;44878;50.102;18.982;2023-05-09T03:53:05;26.47;;;23.77;;
59089;SDS011;44878;50.102;18.982;2023-05-09T03:55:31;27.20;;;24.50;;
59089;SDS011;44878;50.102;18.982;2023-05-09T03:57:57;29.87;;;25.50;;
59089;SDS011;44878;50.102;18.982;2023-05-09T04:00:23;25.33;;;23.00;;
59089;SDS011;44878;50.102;18.982;2023-05-09T04:02:51;25.35;;;22.85;;
59089;SDS011;44878;50.102;18.982;2023-05-09T04:05:17;26.90;;;24.17;;
59089;SDS011;44878;50.102;18.982;2023-05-09T04:07:43;28.10;;;25.40;;
59089;SDS011;44878;50.102;18.982;2023-05-09T04:10:09;26.13;;;23.33;;
59089;SDS011;44878;50.102;18.982;2023-05-09T04:12:35;23.53;;;21.13;;
59089;SDS011;44878;50.102;18.982;2023-05-09T04:15:00;24.77;;;22.37;;
59089;SDS011;44878;50.102;18.982;2023-05-09T04:17:26;25.47;;;23.07;;
59089;SDS011;44878;50.102;18.982;2023-05-09T04:19:52;25.40;;;22.90;;
59089;SDS011;44878;50.102;18.982;2023-05-09T04:22:18;26.60;;;23.80;;
59089;SDS011;44878;50.102;18.982;2023-05-09T04:24:47;28.37;;;25.60;;
59089;SDS011;44878;50.102;18.982;2023-05-09T04:27:13;30.13;;;27.40;;
59089;SDS011;44878;50.102;18.982;2023-05-09T04:29:39;29.43;;;26.43;;
59089;SDS011;44878;50.102;18.982;2023-05-09T04:32:05;28.13;;;25.63;;
59089;SDS011;44878;50.102;18.982;2023-05-09T04:34:31;28.30;;;25.47;;
59089;SDS011;44878;50.102;18.982;2023-05-09T04:36:57;31.63;;;28.63;;
59089;SDS011;44878;50.102;18.982;2023-05-09T04:39:23;31.80;;;28.80;;
59089;SDS011;44878;50.102;18.982;2023-05-09T04:41:49;29.98;;;27.38;;
59089;SDS011;44878;50.102;18.982;2023-05-09T04:44:15;30.13;;;27.27;;
59089;SDS011;44878;50.102;18.982;2023-05-09T04:46:41;32.00;;;29.00;;
59089;SDS011;44878;50.102;18.982;2023-05-09T04:49:08;29.10;;;26.40;;
59089;SDS011;44878;50.102;18.982;2023-05-09T04:51:34;29.58;;;26.92;;
59089;SDS011;44878;50.102;18.982;2023-05-09T04:54:00;31.65;;;28.55;;
59089;SDS011;44878;50.102;18.982;2023-05-09T04:56:25;25.40;;;22.88;;
59089;SDS011;44878;50.102;18.982;2023-05-09T04:58:51;22.65;;;20.50;;
59089;SDS011;44878;50.102;18.982;2023-05-09T05:01:17;27.55;;;23.42;;
59089;SDS011;44878;50.102;18.982;2023-05-09T05:03:43;23.58;;;21.13;;
59089;SDS011;44878;50.102;18.982;2023-05-09T05:06:10;22.92;;;20.77;;
59089;SDS011;44878;50.102;18.982;2023-05-09T05:08:36;22.17;;;20.08;;
59089;SDS011;44878;50.102;18.982;2023-05-09T05:11:02;22.35;;;20.05;;
59089;SDS011;44878;50.102;18.982;2023-05-09T05:13:28;22.02;;;19.85;;
59089;SDS011;44878;50.102;18.982;2023-05-09T05:15:53;22.92;;;20.50;;
59089;SDS011;44878;50.102;18.982;2023-05-09T05:18:21;21.25;;;19.13;;
59089;SDS011;44878;50.102;18.982;2023-05-09T05:20:46;20.52;;;18.52;;
59089;SDS011;44878;50.102;18.982;2023-05-09T05:23:12;22.52;;;20.35;;
59089;SDS011;44878;50.102;18.982;2023-05-09T05:25:41;22.40;;;20.08;;
59089;SDS011;44878;50.102;18.982;2023-05-09T05:28:07;23.92;;;21.52;;
59089;SDS011;44878;50.102;18.982;2023-05-09T05:30:33;23.70;;;21.10;;
59089;SDS011;44878;50.102;18.982;2023-05-09T05:32:59;22.75;;;20.73;;
59089;SDS011;44878;50.102;18.982;2023-05-09T05:35:25;23.15;;;20.92;;
59089;SDS011;44878;50.102;18.982;2023-05-09T05:40:18;24.65;;;21.98;;
59089;SDS011;44878;50.102;18.982;2023-05-09T05:42:44;21.50;;;19.40;;
59089;SDS011;44878;50.102;18.982;2023-05-09T05:45:10;20.40;;;18.35;;
59089;SDS011;44878;50.102;18.982;2023-05-09T05:47:37;21.10;;;18.98;;
59089;SDS011;44878;50.102;18.982;2023-05-09T05:50:03;20.90;;;18.60;;
59089;SDS011;44878;50.102;18.982;2023-05-09T05:52:31;19.58;;;16.55;;
59089;SDS011;44878;50.102;18.982;2023-05-09T05:54:57;16.90;;;15.18;;
59089;SDS011;44878;50.102;18.982;2023-05-09T05:57:23;16.83;;;15.15;;
59089;SDS011;44878;50.102;18.982;2023-05-09T05:59:49;18.35;;;15.85;;
59089;SDS011;44878;50.102;18.982;2023-05-09T06:02:16;20.50;;;18.20;;
59089;SDS011;44878;50.102;18.982;2023-05-09T06:04:42;17.35;;;14.82;;
59089;SDS011;44878;50.102;18.982;2023-05-09T06:07:08;16.58;;;14.88;;
59089;SDS011;44878;50.102;18.982;2023-05-09T06:09:34;14.68;;;13.02;;
59089;SDS011;44878;50.102;18.982;2023-05-09T06:12:00;15.70;;;14.13;;
59089;SDS011;44878;50.102;18.982;2023-05-09T06:14:26;16.23;;;14.57;;
59089;SDS011;44878;50.102;18.982;2023-05-09T06:16:52;16.25;;;13.05;;
59089;SDS011;44878;50.102;18.982;2023-05-09T06:19:18;15.63;;;14.10;;
59089;SDS011;44878;50.102;18.982;2023-05-09T06:21:44;15.18;;;13.77;;
59089;SDS011;44878;50.102;18.982;2023-05-09T06:24:13;18.25;;;13.38;;
59089;SDS011;44878;50.102;18.982;2023-05-09T06:26:39;15.48;;;13.43;;
59089;SDS011;44878;50.102;18.982;2023-05-09T06:29:05;14.90;;;12.35;;
59089;SDS011;44878;50.102;18.982;2023-05-09T06:31:32;13.25;;;11.88;;
59089;SDS011;44878;50.102;18.982;2023-05-09T06:34:05;16.58;;;13.30;;
59089;SDS011;44878;50.102;18.982;2023-05-09T06:36:32;14.52;;;12.63;;
59089;SDS011;44878;50.102;18.982;2023-05-09T06:38:58;17.92;;;13.07;;
59089;SDS011;44878;50.102;18.982;2023-05-09T06:41:24;15.07;;;12.38;;
59089;SDS011;44878;50.102;18.982;2023-05-09T06:43:50;15.43;;;12.88;;
59089;SDS011;44878;50.102;18.982;2023-05-09T06:46:16;15.38;;;12.13;;
59089;SDS011;44878;50.102;18.982;2023-05-09T06:48:42;15.27;;;12.48;;
59089;SDS011;44878;50.102;18.982;2023-05-09T06:51:08;22.38;;;12.80;;
59089;SDS011;44878;50.102;18.982;2023-05-09T06:53:36;14.75;;;11.90;;
59089;SDS011;44878;50.102;18.982;2023-05-09T06:56:02;12.73;;;11.43;;
59089;SDS011;44878;50.102;18.982;2023-05-09T06:58:28;14.77;;;11.90;;
59089;SDS011;44878;50.102;18.982;2023-05-09T07:00:54;14.38;;;11.30;;
59089;SDS011;44878;50.102;18.982;2023-05-09T07:03:20;13.07;;;11.77;;
59089;SDS011;44878;50.102;18.982;2023-05-09T07:05:46;13.32;;;11.93;;
59089;SDS011;44878;50.102;18.982;2023-05-09T07:08:12;12.15;;;10.85;;
59089;SDS011;44878;50.102;18.982;2023-05-09T07:10:38;12.07;;;10.98;;
59089;SDS011;44878;50.102;18.982;2023-05-09T07:13:04;12.25;;;10.75;;
59089;SDS011;44878;50.102;18.982;2023-05-09T07:15:30;12.88;;;10.98;;
59089;SDS011;44878;50.102;18.982;2023-05-09T07:17:56;11.35;;;10.20;;
59089;SDS011;44878;50.102;18.982;2023-05-09T07:20:22;13.18;;;10.65;;
59089;SDS011;44878;50.102;18.982;2023-05-09T07:22:47;12.75;;;10.88;;
59089;SDS011;44878;50.102;18.982;2023-05-09T07:25:13;13.00;;;11.20;;
59089;SDS011;44878;50.102;18.982;2023-05-09T07:27:39;13.35;;;10.93;;
59089;SDS011;44878;50.102;18.982;2023-05-09T07:30:05;12.05;;;10.35;;
59089;SDS011;44878;50.102;18.982;2023-05-09T07:32:32;12.10;;;10.25;;
59089;SDS011;44878;50.102;18.982;2023-05-09T07:34:58;13.93;;;11.30;;
59089;SDS011;44878;50.102;18.982;2023-05-09T07:37:24;10.75;;;9.65;;
59089;SDS011;44878;50.102;18.982;2023-05-09T07:39:50;12.18;;;11.00;;
59089;SDS011;44878;50.102;18.982;2023-05-09T07:42:19;10.95;;;9.80;;
59089;SDS011;44878;50.102;18.982;2023-05-09T07:44:45;11.82;;;10.73;;
59089;SDS011;44878;50.102;18.982;2023-05-09T07:47:11;16.10;;;10.88;;
59089;SDS011;44878;50.102;18.982;2023-05-09T07:49:37;11.85;;;10.00;;
59089;SDS011;44878;50.102;18.982;2023-05-09T07:52:04;11.52;;;10.25;;
59089;SDS011;44878;50.102;18.982;2023-05-09T07:54:30;10.68;;;9.57;;
59089;SDS011;44878;50.102;18.982;2023-05-09T07:56:57;10.35;;;9.10;;
59089;SDS011;44878;50.102;18.982;2023-05-09T07:59:23;11.77;;;9.48;;
59089;SDS011;44878;50.102;18.982;2023-05-09T08:01:49;10.68;;;9.63;;
59089;SDS011;44878;50.102;18.982;2023-05-09T08:04:15;11.10;;;9.98;;
59089;SDS011;44878;50.102;18.982;2023-05-09T08:06:40;10.82;;;9.50;;
59089;SDS011;44878;50.102;18.982;2023-05-09T08:09:06;13.55;;;11.00;;
59089;SDS011;44878;50.102;18.982;2023-05-09T08:11:32;10.50;;;9.50;;
59089;SDS011;44878;50.102;18.982;2023-05-09T08:14:02;11.82;;;9.23;;
59089;SDS011;44878;50.102;18.982;2023-05-09T08:16:28;14.63;;;9.35;;
59089;SDS011;44878;50.102;18.982;2023-05-09T08:18:54;11.60;;;9.55;;
59089;SDS011;44878;50.102;18.982;2023-05-09T08:21:20;13.82;;;9.13;;
59089;SDS011;44878;50.102;18.982;2023-05-09T08:23:46;11.07;;;9.75;;
59089;SDS011;44878;50.102;18.982;2023-05-09T08:26:11;12.95;;;9.98;;
59089;SDS011;44878;50.102;18.982;2023-05-09T08:28:37;11.25;;;9.25;;
59089;SDS011;44878;50.102;18.982;2023-05-09T08:31:03;10.90;;;9.80;;
59089;SDS011;44878;50.102;18.982;2023-05-09T08:33:29;13.75;;;9.27;;
59089;SDS011;44878;50.102;18.982;2023-05-09T08:35:55;12.23;;;10.95;;
59089;SDS011;44878;50.102;18.982;2023-05-09T08:38:22;13.38;;;9.90;;
59089;SDS011;44878;50.102;18.982;2023-05-09T08:40:51;11.33;;;10.13;;
59089;SDS011;44878;50.102;18.982;2023-05-09T08:43:17;11.85;;;10.63;;
59089;SDS011;44878;50.102;18.982;2023-05-09T08:45:58;10.65;;;9.55;;
59089;SDS011;44878;50.102;18.982;2023-05-09T08:48:26;12.48;;;10.45;;
59089;SDS011;44878;50.102;18.982;2023-05-09T08:50:53;12.82;;;10.75;;
59089;SDS011;44878;50.102;18.982;2023-05-09T08:53:19;10.50;;;9.48;;
59089;SDS011;44878;50.102;18.982;2023-05-09T08:55:46;12.80;;;9.68;;
59089;SDS011;44878;50.102;18.982;2023-05-09T08:58:12;12.38;;;9.57;;
59089;SDS011;44878;50.102;18.982;2023-05-09T09:00:39;10.40;;;8.43;;
59089;SDS011;44878;50.102;18.982;2023-05-09T09:03:06;12.18;;;10.27;;
59089;SDS011;44878;50.102;18.982;2023-05-09T09:05:32;12.68;;;9.63;;
59089;SDS011;44878;50.102;18.982;2023-05-09T09:07:59;10.60;;;8.57;;
59089;SDS011;44878;50.102;18.982;2023-05-09T09:10:25;11.35;;;8.60;;
59089;SDS011;44878;50.102;18.982;2023-05-09T09:12:53;10.80;;;7.88;;
59089;SDS011;44878;50.102;18.982;2023-05-09T09:15:21;9.85;;;8.80;;
59089;SDS011;44878;50.102;18.982;2023-05-09T09:17:49;9.93;;;8.93;;
59089;SDS011;44878;50.102;18.982;2023-05-09T09:20:16;10.52;;;8.93;;
59089;SDS011;44878;50.102;18.982;2023-05-09T09:22:43;13.00;;;8.50;;
59089;SDS011;44878;50.102;18.982;2023-05-09T09:25:12;9.77;;;8.57;;
59089;SDS011;44878;50.102;18.982;2023-05-09T09:27:38;7.97;;;7.18;;
59089;SDS011;44878;50.102;18.982;2023-05-09T09:30:09;11.60;;;8.13;;
59089;SDS011;44878;50.102;18.982;2023-05-09T09:32:35;11.02;;;6.90;;
59089;SDS011;44878;50.102;18.982;2023-05-09T09:37:35;9.55;;;6.80;;
59089;SDS011;44878;50.102;18.982;2023-05-09T09:40:01;8.38;;;6.50;;
59089;SDS011;44878;50.102;18.982;2023-05-09T09:42:34;8.45;;;6.40;;
59089;SDS011;44878;50.102;18.982;2023-05-09T09:45:11;8.20;;;6.07;;
59089;SDS011;44878;50.102;18.982;2023-05-09T09:47:38;10.70;;;5.88;;
59089;SDS011;44878;50.102;18.982;2023-05-09T09:52:49;7.00;;;5.90;;
59089;SDS011;44878;50.102;18.982;2023-05-09T09:55:19;7.68;;;5.40;;
59089;SDS011;44878;50.102;18.982;2023-05-09T09:57:45;10.02;;;5.55;;
59089;SDS011;44878;50.102;18.982;2023-05-09T10:00:13;6.97;;;5.60;;
59089;SDS011;44878;50.102;18.982;2023-05-09T10:02:46;6.37;;;4.80;;
59089;SDS011;44878;50.102;18.982;2023-05-09T10:05:17;7.72;;;5.38;;
59089;SDS011;44878;50.102;18.982;2023-05-09T10:07:43;6.68;;;4.30;;
59089;SDS011;44878;50.102;18.982;2023-05-09T10:10:09;5.40;;;4.47;;
59089;SDS011;44878;50.102;18.982;2023-05-09T10:12:38;6.97;;;4.97;;
59089;SDS011;44878;50.102;18.982;2023-05-09T10:15:08;4.47;;;3.90;;
59089;SDS011;44878;50.102;18.982;2023-05-09T10:17:34;7.65;;;4.30;;
59089;SDS011;44878;50.102;18.982;2023-05-09T10:20:03;4.53;;;3.83;;
59089;SDS011;44878;50.102;18.982;2023-05-09T10:22:33;7.03;;;4.53;;
59089;SDS011;44878;50.102;18.982;2023-05-09T10:25:01;7.03;;;4.63;;
59089;SDS011;44878;50.102;18.982;2023-05-09T10:30:06;6.20;;;3.92;;
59089;SDS011;44878;50.102;18.982;2023-05-09T10:32:38;5.15;;;4.03;;
59089;SDS011;44878;50.102;18.982;2023-05-09T10:35:07;7.38;;;4.38;;
59089;SDS011;44878;50.102;18.982;2023-05-09T10:37:35;7.10;;;4.30;;
59089;SDS011;44878;50.102;18.982;2023-05-09T10:40:02;7.22;;;4.32;;
59089;SDS011;44878;50.102;18.982;2023-05-09T10:42:29;5.13;;;4.05;;
59089;SDS011;44878;50.102;18.982;2023-05-09T10:44:58;6.55;;;4.35;;
59089;SDS011;44878;50.102;18.982;2023-05-09T10:47:27;6.53;;;4.50;;
59089;SDS011;44878;50.102;18.982;2023-05-09T10:49:53;5.30;;;3.97;;
59089;SDS011;44878;50.102;18.982;2023-05-09T10:52:20;6.93;;;4.28;;
59089;SDS011;44878;50.102;18.982;2023-05-09T10:55:02;4.78;;;3.75;;
59089;SDS011;44878;50.102;18.982;2023-05-09T10:57:29;9.40;;;4.10;;
59089;SDS011;44878;50.102;18.982;2023-05-09T10:59:56;6.95;;;4.25;;
59089;SDS011;44878;50.102;18.982;2023-05-09T11:02:22;5.60;;;4.20;;
59089;SDS011;44878;50.102;18.982;2023-05-09T11:10:42;6.18;;;4.07;;
59089;SDS011;44878;50.102;18.982;2023-05-09T11:13:08;5.95;;;3.63;;
59089;SDS011;44878;50.102;18.982;2023-05-09T11:15:34;5.38;;;3.65;;
59089;SDS011;44878;50.102;18.982;2023-05-09T11:18:04;5.45;;;3.58;;
59089;SDS011;44878;50.102;18.982;2023-05-09T11:20:32;6.28;;;3.90;;
59089;SDS011;44878;50.102;18.982;2023-05-09T11:25:24;5.15;;;3.63;;
59089;SDS011;44878;50.102;18.982;2023-05-09T11:27:56;5.80;;;3.58;;
59089;SDS011;44878;50.102;18.982;2023-05-09T11:30:23;7.95;;;3.83;;
59089;SDS011;44878;50.102;18.982;2023-05-09T11:32:59;6.22;;;3.05;;
59089;SDS011;44878;50.102;18.982;2023-05-09T11:35:26;5.80;;;3.30;;
59089;SDS011;44878;50.102;18.982;2023-05-09T11:40:20;5.37;;;3.53;;
59089;SDS011;44878;50.102;18.982;2023-05-09T11:42:47;5.88;;;2.90;;
59089;SDS011;44878;50.102;18.982;2023-05-09T11:47:40;6.30;;;3.40;;
59089;SDS011;44878;50.102;18.982;2023-05-09T11:50:06;6.75;;;3.10;;
59089;SDS011;44878;50.102;18.982;2023-05-09T11:52:32;4.03;;;3.25;;
59089;SDS011;44878;50.102;18.982;2023-05-09T11:54:59;6.38;;;3.55;;
59089;SDS011;44878;50.102;18.982;2023-05-09T11:57:25;4.50;;;3.53;;
59089;SDS011;44878;50.102;18.982;2023-05-09T11:59:50;11.50;;;3.55;;
59089;SDS011;44878;50.102;18.982;2023-05-09T12:02:17;5.22;;;3.60;;
59089;SDS011;44878;50.102;18.982;2023-05-09T12:04:43;7.30;;;3.40;;
59089;SDS011;44878;50.102;18.982;2023-05-09T12:07:13;6.22;;;3.33;;
59089;SDS011;44878;50.102;18.982;2023-05-09T12:09:42;7.35;;;3.45;;
59089;SDS011;44878;50.102;18.982;2023-05-09T12:14:35;5.97;;;3.00;;
59089;SDS011;44878;50.102;18.982;2023-05-09T12:17:01;5.82;;;3.17;;
59089;SDS011;44878;50.102;18.982;2023-05-09T12:19:27;5.28;;;3.60;;
59089;SDS011;44878;50.102;18.982;2023-05-09T12:21:57;5.82;;;3.78;;
59089;SDS011;44878;50.102;18.982;2023-05-09T12:24:27;6.18;;;3.63;;
59089;SDS011;44878;50.102;18.982;2023-05-09T12:26:53;9.13;;;3.38;;
59089;SDS011;44878;50.102;18.982;2023-05-09T12:29:20;4.68;;;3.30;;
59089;SDS011;44878;50.102;18.982;2023-05-09T12:31:46;3.85;;;3.20;;
59089;SDS011;44878;50.102;18.982;2023-05-09T12:34:12;5.57;;;3.20;;
59089;SDS011;44878;50.102;18.982;2023-05-09T12:36:38;4.32;;;2.83;;
59089;SDS011;44878;50.102;18.982;2023-05-09T12:39:10;4.07;;;3.20;;
59089;SDS011;44878;50.102;18.982;2023-05-09T12:41:43;5.57;;;3.30;;
59089;SDS011;44878;50.102;18.982;2023-05-09T12:44:16;3.58;;;2.78;;
59089;SDS011;44878;50.102;18.982;2023-05-09T12:46:51;3.88;;;3.20;;
59089;SDS011;44878;50.102;18.982;2023-05-09T12:49:21;4.85;;;3.13;;
59089;SDS011;44878;50.102;18.982;2023-05-09T12:51:47;5.55;;;3.10;;
59089;SDS011;44878;50.102;18.982;2023-05-09T12:54:18;4.38;;;3.20;;
59089;SDS011;44878;50.102;18.982;2023-05-09T12:56:44;5.43;;;2.90;;
59089;SDS011;44878;50.102;18.982;2023-05-09T12:59:12;4.50;;;2.50;;
59089;SDS011;44878;50.102;18.982;2023-05-09T13:01:39;7.57;;;3.05;;
59089;SDS011;44878;50.102;18.982;2023-05-09T13:04:08;6.47;;;3.00;;
59089;SDS011;44878;50.102;18.982;2023-05-09T13:06:45;3.63;;;2.90;;
59089;SDS011;44878;50.102;18.982;2023-05-09T13:09:12;4.40;;;2.78;;
59089;SDS011;44878;50.102;18.982;2023-05-09T13:11:38;5.35;;;2.97;;
59089;SDS011;44878;50.102;18.982;2023-05-09T13:14:03;7.80;;;3.58;;
59089;SDS011;44878;50.102;18.982;2023-05-09T13:16:29;6.00;;;3.30;;
59089;SDS011;44878;50.102;18.982;2023-05-09T13:18:55;5.63;;;3.42;;
59089;SDS011;44878;50.102;18.982;2023-05-09T13:21:21;7.18;;;3.60;;
59089;SDS011;44878;50.102;18.982;2023-05-09T13:23:47;4.68;;;3.33;;
59089;SDS011;44878;50.102;18.982;2023-05-09T13:26:17;8.00;;;3.00;;
59089;SDS011;44878;50.102;18.982;2023-05-09T13:28:43;3.47;;;2.42;;
59089;SDS011;44878;50.102;18.982;2023-05-09T13:31:10;4.15;;;3.10;;
59089;SDS011;44878;50.102;18.982;2023-05-09T13:33:35;4.20;;;2.80;;
59089;SDS011;44878;50.102;18.982;2023-05-09T13:36:01;4.65;;;2.88;;
59089;SDS011;44878;50.102;18.982;2023-05-09T13:38:28;5.75;;;3.40;;
59089;SDS011;44878;50.102;18.982;2023-05-09T13:41:01;4.43;;;3.22;;
59089;SDS011;44878;50.102;18.982;2023-05-09T13:43:30;4.30;;;2.60;;
59089;SDS011;44878;50.102;18.982;2023-05-09T13:45:56;8.30;;;2.60;;
59089;SDS011;44878;50.102;18.982;2023-05-09T13:48:21;3.72;;;2.70;;
59089;SDS011;44878;50.102;18.982;2023-05-09T13:50:57;6.63;;;3.08;;
59089;SDS011;44878;50.102;18.982;2023-05-09T13:53:24;7.68;;;2.75;;
59089;SDS011;44878;50.102;18.982;2023-05-09T13:55:50;4.60;;;2.80;;
59089;SDS011;44878;50.102;18.982;2023-05-09T13:58:16;5.43;;;3.35;;
59089;SDS011;44878;50.102;18.982;2023-05-09T14:00:42;6.50;;;3.00;;
59089;SDS011;44878;50.102;18.982;2023-05-09T14:03:08;4.97;;;3.10;;
59089;SDS011;44878;50.102;18.982;2023-05-09T14:05:34;10.43;;;3.50;;
59089;SDS011;44878;50.102;18.982;2023-05-09T14:08:00;7.07;;;3.55;;
59089;SDS011;44878;50.102;18.982;2023-05-09T14:10:26;5.28;;;2.88;;
59089;SDS011;44878;50.102;18.982;2023-05-09T14:12:52;5.70;;;3.10;;
59089;SDS011;44878;50.102;18.982;2023-05-09T14:15:18;3.72;;;2.97;;
59089;SDS011;44878;50.102;18.982;2023-05-09T14:17:47;4.60;;;3.00;;
59089;SDS011;44878;50.102;18.982;2023-05-09T14:20:13;6.63;;;2.85;;
59089;SDS011;44878;50.102;18.982;2023-05-09T14:22:42;5.88;;;2.50;;
59089;SDS011;44878;50.102;18.982;2023-05-09T14:25:08;5.47;;;2.90;;
59089;SDS011;44878;50.102;18.982;2023-05-09T14:27:34;6.68;;;3.40;;
59089;SDS011;44878;50.102;18.982;2023-05-09T14:30:03;4.90;;;2.78;;
59089;SDS011;44878;50.102;18.982;2023-05-09T14:32:29;4.55;;;2.53;;
59089;SDS011;44878;50.102;18.982;2023-05-09T14:34:58;3.70;;;2.60;;
59089;SDS011;44878;50.102;18.982;2023-05-09T14:37:24;4.78;;;2.60;;
59089;SDS011;44878;50.102;18.982;2023-05-09T14:39:50;3.35;;;2.60;;
59089;SDS011;44878;50.102;18.982;2023-05-09T14:42:16;4.40;;;2.30;;
59089;SDS011;44878;50.102;18.982;2023-05-09T14:44:43;4.30;;;2.95;;
59089;SDS011;44878;50.102;18.982;2023-05-09T14:47:10;3.83;;;2.30;;
59089;SDS011;44878;50.102;18.982;2023-05-09T14:49:36;7.20;;;2.97;;
59089;SDS011;44878;50.102;18.982;2023-05-09T14:54:30;6.68;;;2.60;;
59089;SDS011;44878;50.102;18.982;2023-05-09T14:56:56;7.07;;;2.80;;
59089;SDS011;44878;50.102;18.982;2023-05-09T14:59:24;3.33;;;2.60;;